createdAt,value
2018-10-07T00:00:06.869Z,28.30
2018-10-07T00:01:06.862Z,28.10
2018-10-07T00:02:06.847Z,28.50
2018-10-07T00:03:06.844Z,29.00
2018-10-07T00:04:06.850Z,28.80
2018-10-07T00:05:06.814Z,26.60
2018-10-07T00:06:06.809Z,28.30
2018-10-07T00:07:06.792Z,25.90
2018-10-07T00:08:06.781Z,26.10
2018-10-07T00:09:06.796Z,31.60
2018-10-07T00:10:06.757Z,27.80
2018-10-07T00:11:06.749Z,24.10
2018-10-07T00:12:06.731Z,25.70
2018-10-07T00:13:06.724Z,27.30
2018-10-07T00:14:06.737Z,25.90
2018-10-07T00:15:06.699Z,29.20
2018-10-07T00:16:06.687Z,65.40
2018-10-07T00:17:06.677Z,125.80
2018-10-07T00:18:06.668Z,84.20
2018-10-07T00:19:06.676Z,46.70
2018-10-07T00:20:07.095Z,33.10
2018-10-07T00:21:06.758Z,31.10
2018-10-07T00:22:06.688Z,28.90
2018-10-07T00:23:06.665Z,29.60
2018-10-07T00:24:06.615Z,31.00
2018-10-07T00:25:06.589Z,28.50
2018-10-07T00:26:06.568Z,29.80
2018-10-07T00:27:06.657Z,28.80
2018-10-07T00:28:07.957Z,30.00
2018-10-07T00:29:06.729Z,31.50
2018-10-07T00:30:06.523Z,32.20
2018-10-07T00:31:06.613Z,28.90
2018-10-07T00:32:06.498Z,34.20
2018-10-07T00:33:06.509Z,32.30
2018-10-07T00:34:06.496Z,27.90
2018-10-07T00:35:06.663Z,36.20
2018-10-07T00:36:06.982Z,29.90
2018-10-07T00:37:06.790Z,31.00
2018-10-07T00:38:06.580Z,30.80
2018-10-07T00:39:06.576Z,31.80
2018-10-07T00:40:06.412Z,33.10
2018-10-07T00:41:06.495Z,35.10
2018-10-07T00:42:06.401Z,32.00
2018-10-07T00:43:06.511Z,35.00
2018-10-07T00:44:06.582Z,34.00
2018-10-07T00:45:06.357Z,35.20
2018-10-07T00:46:06.340Z,33.80
2018-10-07T00:47:06.635Z,34.30
2018-10-07T00:48:06.320Z,30.00
2018-10-07T00:49:06.322Z,31.70
2018-10-07T00:50:06.297Z,33.10
2018-10-07T00:51:06.284Z,34.60
2018-10-07T00:52:06.333Z,36.80
2018-10-07T00:53:06.859Z,36.80
2018-10-07T00:54:06.468Z,33.70
2018-10-07T00:55:06.345Z,34.40
2018-10-07T00:56:06.828Z,36.10
2018-10-07T00:57:06.724Z,36.50
2018-10-07T00:58:06.196Z,36.90
2018-10-07T00:59:06.317Z,36.70
2018-10-07T01:00:06.307Z,38.60
2018-10-07T01:01:06.163Z,38.40
2018-10-07T01:02:06.154Z,37.50
2018-10-07T01:03:06.268Z,35.00
2018-10-07T01:04:06.148Z,39.10
2018-10-07T01:05:06.125Z,39.00
2018-10-07T01:06:07.014Z,39.30
2018-10-07T01:07:07.653Z,33.60
2018-10-07T01:08:06.088Z,38.70
2018-10-07T01:09:06.095Z,37.70
2018-10-07T01:10:06.080Z,39.60
2018-10-07T01:11:06.531Z,39.00
2018-10-07T01:12:06.095Z,39.80
2018-10-07T01:13:06.115Z,38.90
2018-10-07T01:14:06.044Z,41.50
2018-10-07T01:15:06.007Z,40.20
2018-10-07T01:16:06.609Z,37.20
2018-10-07T01:17:06.212Z,38.60
2018-10-07T01:18:06.249Z,36.80
2018-10-07T01:19:06.744Z,37.70
2018-10-07T01:20:05.987Z,39.70
2018-10-07T01:21:06.023Z,43.10
2018-10-07T01:22:06.431Z,38.70
2018-10-07T01:23:06.624Z,40.80
2018-10-07T01:24:06.135Z,40.20
2018-10-07T01:25:05.886Z,44.50
2018-10-07T01:26:06.164Z,40.60
2018-10-07T01:27:06.022Z,40.00
2018-10-07T01:28:05.988Z,40.20
2018-10-07T01:29:05.910Z,46.70
2018-10-07T01:30:05.839Z,41.90
2018-10-07T01:31:05.819Z,42.60
2018-10-07T01:32:05.819Z,39.20
2018-10-07T01:33:05.800Z,39.20
2018-10-07T01:34:05.906Z,43.10
2018-10-07T01:35:06.188Z,43.30
2018-10-07T01:36:06.874Z,44.80
2018-10-07T01:37:06.365Z,40.60
2018-10-07T01:38:06.318Z,44.30
2018-10-07T01:39:08.695Z,42.60
2018-10-07T01:40:05.924Z,41.10
2018-10-07T01:41:05.793Z,41.20
2018-10-07T01:42:05.885Z,42.80
2018-10-07T01:43:05.784Z,43.00
2018-10-07T01:44:05.699Z,43.60
2018-10-07T01:45:05.655Z,41.80
2018-10-07T01:46:05.717Z,43.60
2018-10-07T01:47:05.640Z,40.70
2018-10-07T01:48:05.630Z,46.00
2018-10-07T01:49:05.837Z,39.50
2018-10-07T01:50:05.607Z,42.40
2018-10-07T01:51:05.618Z,40.00
2018-10-07T01:52:05.829Z,39.70
2018-10-07T01:53:06.352Z,42.90
2018-10-07T01:54:05.575Z,44.10
2018-10-07T01:55:05.550Z,41.30
2018-10-07T01:56:05.543Z,43.30
2018-10-07T01:57:05.520Z,39.90
2018-10-07T01:58:05.511Z,44.90
2018-10-07T01:59:05.520Z,45.60
2018-10-07T02:00:05.491Z,46.90
2018-10-07T02:01:05.477Z,44.60
2018-10-07T02:02:05.461Z,45.10
2018-10-07T02:03:05.453Z,48.60
2018-10-07T02:04:05.457Z,48.00
2018-10-07T02:05:05.485Z,46.50
2018-10-07T02:06:05.413Z,47.50
2018-10-07T02:07:05.403Z,49.60
2018-10-07T02:08:05.391Z,51.80
2018-10-07T02:09:05.405Z,48.30
2018-10-07T02:10:05.389Z,47.20
2018-10-07T02:11:05.355Z,47.40
2018-10-07T02:12:05.345Z,47.80
2018-10-07T02:13:05.335Z,46.50
2018-10-07T02:14:05.436Z,48.00
2018-10-07T02:15:05.314Z,48.00
2018-10-07T02:16:05.301Z,50.00
2018-10-07T02:17:05.286Z,51.10
2018-10-07T02:18:05.278Z,49.30
2018-10-07T02:19:05.289Z,54.70
2018-10-07T02:20:05.262Z,51.80
2018-10-07T02:21:05.237Z,47.90
2018-10-07T02:22:05.233Z,49.40
2018-10-07T02:23:05.221Z,51.00
2018-10-07T02:24:05.223Z,54.10
2018-10-07T02:25:05.201Z,55.90
2018-10-07T02:26:05.189Z,53.80
2018-10-07T02:27:05.172Z,54.20
2018-10-07T02:28:05.167Z,53.50
2018-10-07T02:29:05.171Z,53.80
2018-10-07T02:30:05.134Z,52.00
2018-10-07T02:31:05.132Z,47.10
2018-10-07T02:32:05.113Z,53.30
2018-10-07T02:33:05.104Z,51.80
2018-10-07T02:34:05.118Z,55.70
2018-10-07T02:35:05.076Z,54.20
2018-10-07T02:36:05.073Z,55.60
2018-10-07T02:37:05.055Z,53.70
2018-10-07T02:38:05.042Z,56.70
2018-10-07T02:39:05.061Z,56.00
2018-10-07T02:40:05.020Z,54.00
2018-10-07T02:41:05.014Z,59.20
2018-10-07T02:42:05.002Z,52.40
2018-10-07T02:43:04.984Z,53.40
2018-10-07T02:44:05.002Z,54.10
2018-10-07T02:45:04.958Z,51.90
2018-10-07T02:46:04.951Z,56.10
2018-10-07T02:47:04.943Z,56.60
2018-10-07T02:48:04.924Z,53.80
2018-10-07T02:49:04.944Z,58.40
2018-10-07T02:50:04.911Z,50.50
2018-10-07T02:51:04.896Z,53.10
2018-10-07T02:52:04.887Z,52.50
2018-10-07T02:53:04.889Z,51.60
2018-10-07T02:54:04.886Z,51.40
2018-10-07T02:55:04.848Z,52.60
2018-10-07T02:56:04.838Z,57.00
2018-10-07T02:57:04.825Z,54.80
2018-10-07T02:58:04.816Z,52.40
2018-10-07T02:59:04.830Z,56.80
2018-10-07T03:00:04.786Z,52.40
2018-10-07T03:01:04.784Z,53.30
2018-10-07T03:02:04.763Z,54.30
2018-10-07T03:03:04.760Z,51.10
2018-10-07T03:04:04.773Z,53.50
2018-10-07T03:05:04.729Z,56.00
2018-10-07T03:06:04.725Z,52.50
2018-10-07T03:07:04.705Z,53.70
2018-10-07T03:08:04.693Z,48.60
2018-10-07T03:09:04.716Z,55.60
2018-10-07T03:10:04.670Z,55.80
2018-10-07T03:11:04.661Z,56.70
2018-10-07T03:12:04.657Z,49.70
2018-10-07T03:13:04.640Z,52.50
2018-10-07T03:14:04.653Z,53.30
2018-10-07T03:15:04.612Z,55.10
2018-10-07T03:16:04.615Z,51.30
2018-10-07T03:17:04.590Z,52.90
2018-10-07T03:18:04.581Z,50.80
2018-10-07T03:19:04.595Z,52.40
2018-10-07T03:20:04.553Z,52.30
2018-10-07T03:21:04.554Z,50.80
2018-10-07T03:22:04.536Z,52.50
2018-10-07T03:23:04.522Z,49.10
2018-10-07T03:24:04.539Z,51.50
2018-10-07T03:25:04.495Z,54.00
2018-10-07T03:26:04.487Z,51.10
2018-10-07T03:27:04.477Z,52.80
2018-10-07T03:28:04.464Z,52.80
2018-10-07T03:29:04.481Z,54.20
2018-10-07T03:30:04.444Z,50.70
2018-10-07T03:31:04.432Z,51.30
2018-10-07T03:32:04.415Z,49.90
2018-10-07T03:33:04.412Z,50.90
2018-10-07T03:34:04.420Z,51.80
2018-10-07T03:35:04.384Z,48.20
2018-10-07T03:36:04.378Z,52.00
2018-10-07T03:37:04.358Z,50.90
2018-10-07T03:38:04.348Z,53.20
2018-10-07T03:39:04.371Z,48.10
2018-10-07T03:40:04.329Z,51.10
2018-10-07T03:41:04.314Z,48.10
2018-10-07T03:42:04.300Z,51.30
2018-10-07T03:43:04.297Z,49.70
2018-10-07T03:44:04.303Z,48.40
2018-10-07T03:45:04.270Z,46.60
2018-10-07T03:46:04.262Z,49.60
2018-10-07T03:47:04.242Z,46.60
2018-10-07T03:48:04.239Z,38.90
2018-10-07T03:49:04.239Z,34.70
2018-10-07T03:50:04.216Z,35.50
2018-10-07T03:51:04.196Z,32.30
2018-10-07T03:52:04.183Z,29.60
2018-10-07T03:53:04.181Z,25.90
2018-10-07T03:54:04.181Z,24.90
2018-10-07T03:55:04.154Z,23.20
2018-10-07T03:56:04.141Z,22.50
2018-10-07T03:57:04.125Z,25.10
2018-10-07T03:58:04.119Z,24.90
2018-10-07T03:59:04.126Z,22.80
2018-10-07T04:00:04.091Z,20.10
2018-10-07T04:01:04.088Z,19.30
2018-10-07T04:02:04.073Z,16.90
2018-10-07T04:03:04.058Z,16.40
2018-10-07T04:04:04.078Z,14.50
2018-10-07T04:05:04.043Z,16.40
2018-10-07T04:06:04.019Z,15.20
2018-10-07T04:07:04.017Z,13.80
2018-10-07T04:08:04.005Z,14.60
2018-10-07T04:09:04.007Z,15.60
2018-10-07T04:10:03.983Z,15.90
2018-10-07T04:11:03.962Z,15.00
2018-10-07T04:12:03.952Z,12.90
2018-10-07T04:13:03.943Z,12.90
2018-10-07T04:14:03.949Z,10.80
2018-10-07T04:15:03.919Z,11.90
2018-10-07T04:16:03.908Z,11.30
2018-10-07T04:17:03.899Z,9.80
2018-10-07T04:18:03.895Z,9.20
2018-10-07T04:19:03.892Z,9.60
2018-10-07T04:20:03.862Z,10.00
2018-10-07T04:21:03.851Z,9.40
2018-10-07T04:22:03.836Z,10.30
2018-10-07T04:23:03.834Z,9.30
2018-10-07T04:24:03.838Z,5.90
2018-10-07T04:25:03.802Z,8.20
2018-10-07T04:26:03.794Z,8.10
2018-10-07T04:27:03.779Z,8.10
2018-10-07T04:28:03.772Z,10.90
2018-10-07T04:29:03.780Z,10.40
2018-10-07T04:30:03.743Z,8.90
2018-10-07T04:31:03.737Z,10.30
2018-10-07T04:32:03.723Z,9.00
2018-10-07T04:33:03.710Z,10.70
2018-10-07T04:34:03.715Z,9.00
2018-10-07T04:35:03.684Z,7.90
2018-10-07T04:36:03.676Z,8.50
2018-10-07T04:37:03.748Z,10.10
2018-10-07T04:38:03.654Z,7.80
2018-10-07T04:39:03.662Z,10.60
2018-10-07T04:40:03.630Z,8.80
2018-10-07T04:41:03.621Z,8.60
2018-10-07T04:42:03.603Z,10.10
2018-10-07T04:43:03.595Z,8.30
2018-10-07T04:44:03.605Z,9.50
2018-10-07T04:45:03.570Z,12.50
2018-10-07T04:46:03.554Z,10.30
2018-10-07T04:47:03.553Z,14.30
2018-10-07T04:48:03.534Z,9.90
2018-10-07T04:49:03.548Z,10.10
2018-10-07T04:50:03.511Z,11.10
2018-10-07T04:51:03.499Z,8.50
2018-10-07T04:52:03.489Z,7.80
2018-10-07T04:53:03.482Z,10.80
2018-10-07T04:54:03.499Z,11.80
2018-10-07T04:55:03.453Z,8.70
2018-10-07T04:56:03.447Z,9.60
2018-10-07T04:57:03.432Z,10.80
2018-10-07T04:58:03.417Z,12.30
2018-10-07T04:59:03.415Z,9.10
2018-10-07T05:00:03.447Z,11.50
2018-10-07T05:01:03.387Z,9.20
2018-10-07T05:02:03.375Z,8.90
2018-10-07T05:03:03.360Z,10.60
2018-10-07T05:04:03.347Z,10.20
2018-10-07T05:05:03.370Z,12.30
2018-10-07T05:06:03.331Z,9.80
2018-10-07T05:07:03.319Z,10.10
2018-10-07T05:08:03.309Z,10.40
2018-10-07T05:09:03.294Z,9.30
2018-10-07T05:10:03.309Z,10.30
2018-10-07T05:11:03.271Z,13.20
2018-10-07T05:12:03.323Z,10.30
2018-10-07T05:13:03.252Z,9.40
2018-10-07T05:14:03.243Z,9.40
2018-10-07T05:15:03.245Z,9.00
2018-10-07T05:16:03.212Z,9.10
2018-10-07T05:17:03.209Z,9.10
2018-10-07T05:18:03.189Z,9.40
2018-10-07T05:19:03.179Z,9.30
2018-10-07T05:20:03.197Z,9.90
2018-10-07T05:21:03.243Z,10.40
2018-10-07T05:22:03.154Z,9.60
2018-10-07T05:23:03.131Z,7.00
2018-10-07T05:24:03.122Z,9.00
2018-10-07T05:25:03.136Z,8.40
2018-10-07T05:26:03.105Z,7.20
2018-10-07T05:27:03.089Z,8.60
2018-10-07T05:28:03.080Z,8.60
2018-10-07T05:29:03.066Z,8.90
2018-10-07T05:30:03.078Z,9.70
2018-10-07T05:31:03.052Z,11.60
2018-10-07T05:32:03.039Z,10.20
2018-10-07T05:33:03.042Z,9.40
2018-10-07T05:34:03.009Z,10.10
2018-10-07T05:35:03.031Z,9.90
2018-10-07T05:36:02.992Z,33.20
2018-10-07T05:37:02.978Z,26.40
2018-10-07T05:38:02.967Z,11.80
2018-10-07T05:39:02.954Z,10.60
2018-10-07T05:40:02.959Z,11.60
2018-10-07T05:41:02.934Z,12.00
2018-10-07T05:42:02.926Z,9.20
2018-10-07T05:43:02.911Z,8.10
2018-10-07T05:44:02.902Z,8.90
2018-10-07T05:45:02.905Z,9.60
2018-10-07T05:46:02.932Z,8.30
2018-10-07T05:47:02.857Z,9.70
2018-10-07T05:48:02.871Z,11.60
2018-10-07T05:49:03.104Z,7.70
2018-10-07T05:50:02.848Z,9.40
2018-10-07T05:51:02.824Z,8.50
2018-10-07T05:52:02.803Z,9.90
2018-10-07T05:53:02.796Z,8.70
2018-10-07T05:54:02.787Z,9.40
2018-10-07T05:55:03.571Z,8.50
2018-10-07T05:56:02.764Z,8.30
2018-10-07T05:57:02.743Z,9.30
2018-10-07T05:58:02.747Z,8.80
2018-10-07T05:59:02.721Z,9.70
2018-10-07T06:00:02.732Z,7.70
2018-10-07T06:01:02.706Z,5.70
2018-10-07T06:02:02.750Z,9.50
2018-10-07T06:03:02.684Z,5.90
2018-10-07T06:04:02.669Z,6.00
2018-10-07T06:05:02.678Z,5.70
2018-10-07T06:06:02.641Z,7.50
2018-10-07T06:07:02.645Z,8.00
2018-10-07T06:08:02.627Z,7.40
2018-10-07T06:09:03.051Z,6.30
2018-10-07T06:10:02.636Z,5.70
2018-10-07T06:11:02.585Z,4.80
2018-10-07T06:12:02.575Z,6.30
2018-10-07T06:13:02.567Z,5.80
2018-10-07T06:14:02.558Z,4.60
2018-10-07T06:15:02.649Z,7.30
2018-10-07T06:16:02.532Z,7.10
2018-10-07T06:17:02.520Z,4.70
2018-10-07T06:18:02.505Z,5.00
2018-10-07T06:19:02.501Z,4.50
2018-10-07T06:20:02.491Z,7.00
2018-10-07T06:21:02.492Z,4.50
2018-10-07T06:22:02.462Z,4.70
2018-10-07T06:23:02.456Z,5.20
2018-10-07T06:24:02.436Z,4.50
2018-10-07T06:25:02.433Z,5.20
2018-10-07T06:26:02.444Z,3.70
2018-10-07T06:27:02.404Z,5.80
2018-10-07T06:28:02.394Z,51.30
2018-10-07T06:29:02.380Z,23.90
2018-10-07T06:30:02.534Z,6.20
2018-10-07T06:31:02.388Z,5.00
2018-10-07T06:32:02.500Z,4.80
2018-10-07T06:33:02.339Z,5.10
2018-10-07T06:34:02.322Z,4.20
2018-10-07T06:35:02.371Z,4.70
2018-10-07T06:36:02.331Z,4.60
2018-10-07T06:37:02.293Z,3.80
2018-10-07T06:38:02.276Z,4.90
2018-10-07T06:39:02.316Z,3.80
2018-10-07T06:40:02.264Z,6.20
2018-10-07T06:41:02.269Z,6.20
2018-10-07T06:42:02.254Z,3.50
2018-10-07T06:43:02.231Z,4.10
2018-10-07T06:44:02.216Z,4.00
2018-10-07T06:45:02.201Z,5.40
2018-10-07T06:46:02.218Z,7.10
2018-10-07T06:47:02.177Z,4.50
2018-10-07T06:48:02.167Z,4.40
2018-10-07T06:49:02.153Z,3.90
2018-10-07T06:50:02.146Z,5.90
2018-10-07T06:51:02.155Z,5.20
2018-10-07T06:52:02.152Z,7.20
2018-10-07T06:53:02.105Z,4.30
2018-10-07T06:54:02.104Z,3.50
2018-10-07T06:55:02.080Z,4.60
2018-10-07T06:56:02.092Z,6.10
2018-10-07T06:57:02.091Z,3.90
2018-10-07T06:58:02.055Z,5.30
2018-10-07T06:59:02.043Z,6.00
2018-10-07T07:00:02.030Z,3.60
2018-10-07T07:01:02.185Z,5.90
2018-10-07T07:02:02.000Z,5.10
2018-10-07T07:03:01.999Z,6.30
2018-10-07T07:04:01.981Z,88.90
2018-10-07T07:05:01.979Z,16.80
2018-10-07T07:06:02.048Z,7.20
2018-10-07T07:07:01.949Z,5.80
2018-10-07T07:08:01.940Z,5.70
2018-10-07T07:09:01.922Z,6.70
2018-10-07T07:10:01.907Z,6.30
2018-10-07T07:11:01.928Z,4.40
2018-10-07T07:12:01.888Z,6.20
2018-10-07T07:13:01.918Z,4.00
2018-10-07T07:14:01.878Z,5.30
2018-10-07T07:15:01.857Z,5.70
2018-10-07T07:16:01.870Z,5.00
2018-10-07T07:17:01.828Z,4.00
2018-10-07T07:18:01.855Z,4.20
2018-10-07T07:19:01.811Z,3.50
2018-10-07T07:20:01.801Z,5.10
2018-10-07T07:21:01.821Z,4.00
2018-10-07T07:22:01.983Z,3.60
2018-10-07T07:23:01.761Z,3.90
2018-10-07T07:24:01.755Z,4.80
2018-10-07T07:25:01.737Z,5.10
2018-10-07T07:26:01.747Z,4.80
2018-10-07T07:27:01.717Z,3.30
2018-10-07T07:28:01.699Z,3.70
2018-10-07T07:29:01.698Z,3.50
2018-10-07T07:30:01.715Z,4.00
2018-10-07T07:31:01.697Z,4.80
2018-10-07T07:32:01.661Z,4.40
2018-10-07T07:33:01.663Z,3.20
2018-10-07T07:34:01.630Z,2.80
2018-10-07T07:35:01.632Z,2.40
2018-10-07T07:36:01.647Z,3.20
2018-10-07T07:37:01.678Z,3.00
2018-10-07T07:38:01.595Z,3.10
2018-10-07T07:39:01.575Z,2.20
2018-10-07T07:40:01.570Z,2.40
2018-10-07T07:41:01.585Z,2.40
2018-10-07T07:42:01.538Z,2.80
2018-10-07T07:43:01.536Z,3.60
2018-10-07T07:44:01.523Z,2.20
2018-10-07T07:45:01.508Z,4.30
2018-10-07T07:46:01.518Z,3.70
2018-10-07T07:47:01.483Z,2.50
2018-10-07T07:48:02.037Z,3.10
2018-10-07T07:49:01.591Z,3.50
2018-10-07T07:50:01.554Z,3.50
2018-10-07T07:51:01.510Z,95.90
2018-10-07T07:52:01.536Z,99.90
2018-10-07T07:53:01.503Z,3.50
2018-10-07T07:54:02.146Z,6.00
2018-10-07T07:55:01.631Z,2.60
2018-10-07T07:56:01.672Z,2.60
2018-10-07T07:57:01.478Z,2.90
2018-10-07T07:58:01.360Z,2.30
2018-10-07T07:59:01.452Z,3.40
2018-10-07T08:00:01.445Z,2.70
2018-10-07T08:01:03.979Z,2.10
2018-10-07T08:02:01.854Z,2.20
2018-10-07T08:03:01.416Z,2.10
2018-10-07T08:04:01.283Z,2.60
2018-10-07T08:05:01.397Z,2.00
2018-10-07T08:06:01.320Z,1.30
2018-10-07T08:07:01.286Z,2.10
2018-10-07T08:08:01.567Z,2.70
2018-10-07T08:09:01.809Z,1.50
2018-10-07T08:10:01.788Z,3.50
2018-10-07T08:11:01.291Z,3.00
2018-10-07T08:12:01.267Z,2.90
2018-10-07T08:13:01.460Z,2.30
2018-10-07T08:14:01.353Z,4.60
2018-10-07T08:15:01.343Z,2.10
2018-10-07T08:16:01.791Z,2.60
2018-10-07T08:17:01.587Z,1.50
2018-10-07T08:18:01.318Z,2.00
2018-10-07T08:20:25.200Z,56.40
2018-10-07T08:21:25.220Z,57.20
2018-10-07T08:22:27.853Z,12.80
2018-10-07T08:23:29.561Z,8.70
2018-10-07T08:24:29.452Z,35.30
2018-10-07T08:25:29.443Z,5.30
2018-10-07T08:26:29.453Z,1.60
2018-10-07T08:27:29.418Z,2.80
2018-10-07T08:28:29.407Z,2.20
2018-10-07T08:29:29.449Z,1.60
2018-10-07T08:30:29.386Z,2.30
2018-10-07T08:31:29.395Z,1.50
2018-10-07T08:32:29.356Z,1.10
2018-10-07T08:33:29.342Z,1.80
2018-10-07T08:34:29.340Z,2.20
2018-10-07T08:35:29.443Z,1.60
2018-10-07T08:36:30.962Z,2.30
2018-10-07T08:37:29.407Z,2.80
2018-10-07T08:38:29.424Z,1.50
2018-10-07T08:39:29.394Z,2.00
2018-10-07T08:40:29.943Z,1.10
2018-10-07T08:41:30.610Z,2.10
2018-10-07T08:42:29.788Z,1.90
2018-10-07T08:43:29.781Z,2.50
2018-10-07T08:44:29.888Z,2.20
2018-10-07T08:45:29.888Z,2.10
2018-10-07T08:46:29.213Z,0.90
2018-10-07T08:47:29.183Z,2.40
2018-10-07T08:48:29.168Z,1.20
2018-10-07T08:49:29.165Z,2.00
2018-10-07T08:50:29.151Z,1.50
2018-10-07T08:51:29.159Z,2.00
2018-10-07T08:52:29.122Z,2.30
2018-10-07T08:53:29.128Z,2.00
2018-10-07T08:54:29.103Z,1.60
2018-10-07T08:55:29.093Z,6.30
2018-10-07T08:56:29.168Z,66.30
2018-10-07T08:57:29.068Z,78.20
2018-10-07T08:58:29.656Z,4.00
2018-10-07T08:59:29.046Z,3.30
2018-10-07T09:00:29.030Z,1.60
2018-10-07T09:01:29.043Z,2.20
2018-10-07T09:02:29.015Z,1.80
2018-10-07T09:03:29.003Z,1.20
2018-10-07T09:04:28.986Z,2.70
2018-10-07T09:05:28.980Z,1.60
2018-10-07T09:06:28.993Z,1.90
2018-10-07T09:07:28.951Z,0.90
2018-10-07T09:08:29.333Z,1.40
2018-10-07T09:09:28.930Z,1.40
2018-10-07T09:10:28.917Z,1.70
2018-10-07T09:11:28.937Z,2.50
2018-10-07T09:12:28.895Z,1.10
2018-10-07T09:13:28.892Z,2.40
2018-10-07T09:14:28.927Z,0.80
2018-10-07T09:15:28.868Z,2.80
2018-10-07T09:16:29.149Z,1.40
2018-10-07T09:17:29.005Z,1.90
2018-10-07T09:18:29.225Z,1.60
2018-10-07T09:19:29.005Z,1.70
2018-10-07T09:20:29.016Z,1.30
2018-10-07T09:21:29.769Z,1.00
2018-10-07T09:22:28.811Z,1.70
2018-10-07T09:23:28.785Z,0.80
2018-10-07T09:24:28.769Z,0.90
2018-10-07T09:25:28.766Z,1.70
2018-10-07T09:26:28.782Z,1.30
2018-10-07T09:27:28.729Z,1.30
2018-10-07T09:28:28.723Z,2.50
2018-10-07T09:29:28.706Z,1.10
2018-10-07T09:30:28.693Z,15.20
2018-10-07T09:31:28.703Z,43.30
2018-10-07T09:32:28.805Z,70.80
2018-10-07T09:33:28.661Z,2.10
2018-10-07T09:34:28.657Z,3.50
2018-10-07T09:35:28.638Z,1.40
2018-10-07T09:36:28.649Z,2.00
2018-10-07T09:37:28.613Z,3.40
2018-10-07T09:38:28.607Z,1.20
2018-10-07T09:39:28.639Z,1.80
2018-10-07T09:40:28.590Z,1.60
2018-10-07T09:41:28.591Z,1.30
2018-10-07T09:42:28.558Z,0.90
2018-10-07T09:43:28.556Z,1.00
2018-10-07T09:44:28.536Z,1.50
2018-10-07T09:45:28.536Z,1.60
2018-10-07T09:46:28.539Z,1.60
2018-10-07T09:47:28.508Z,3.30
2018-10-07T09:48:28.497Z,0.90
2018-10-07T09:49:28.481Z,0.90
2018-10-07T09:50:28.469Z,1.00
2018-10-07T09:51:28.483Z,2.40
2018-10-07T09:52:28.501Z,1.30
2018-10-07T09:53:28.453Z,3.00
2018-10-07T09:54:28.433Z,1.80
2018-10-07T09:55:28.422Z,1.60
2018-10-07T09:56:28.427Z,1.30
2018-10-07T09:57:28.403Z,0.80
2018-10-07T09:58:28.390Z,1.00
2018-10-07T09:59:28.370Z,1.60
2018-10-07T10:00:28.367Z,29.70
2018-10-07T10:01:28.370Z,11.90
2018-10-07T10:02:28.353Z,15.90
2018-10-07T10:03:28.333Z,2.70
2018-10-07T10:04:28.378Z,2.10
2018-10-07T10:05:28.307Z,1.00
2018-10-07T10:06:28.323Z,1.20
2018-10-07T10:07:28.288Z,1.00
2018-10-07T10:08:28.275Z,1.60
2018-10-07T10:09:28.265Z,1.10
2018-10-07T10:10:28.253Z,1.10
2018-10-07T10:11:28.266Z,1.00
2018-10-07T10:12:28.234Z,1.70
2018-10-07T10:13:28.221Z,1.00
2018-10-07T10:14:28.206Z,2.00
2018-10-07T10:15:28.205Z,0.70
2018-10-07T10:16:28.210Z,1.20
2018-10-07T10:17:28.192Z,0.90
2018-10-07T10:18:28.167Z,0.80
2018-10-07T10:19:28.180Z,1.90
2018-10-07T10:20:28.144Z,1.40
2018-10-07T10:21:28.160Z,2.00
2018-10-07T10:22:28.124Z,0.90
2018-10-07T10:23:28.110Z,1.10
2018-10-07T10:24:28.097Z,1.20
2018-10-07T10:25:28.084Z,1.00
2018-10-07T10:26:28.076Z,1.00
2018-10-07T10:27:28.091Z,0.70
2018-10-07T10:28:28.059Z,1.00
2018-10-07T10:29:28.040Z,1.00
2018-10-07T10:30:28.036Z,1.90
2018-10-07T10:31:28.023Z,1.00
2018-10-07T10:32:28.039Z,2.20
2018-10-07T10:33:28.005Z,8.00
2018-10-07T10:34:27.991Z,15.40
2018-10-07T10:35:27.976Z,6.30
2018-10-07T10:36:27.967Z,27.40
2018-10-07T10:37:27.959Z,3.60
2018-10-07T10:38:27.971Z,1.30
2018-10-07T10:39:27.953Z,1.60
2018-10-07T10:40:27.929Z,1.90
2018-10-07T10:41:27.922Z,2.40
2018-10-07T10:42:27.899Z,1.20
2018-10-07T10:43:27.926Z,1.60
2018-10-07T10:44:27.878Z,1.20
2018-10-07T10:45:27.876Z,1.80
2018-10-07T10:46:27.866Z,0.80
2018-10-07T10:47:27.848Z,2.10
2018-10-07T10:48:28.075Z,1.10
2018-10-07T10:49:27.854Z,1.30
2018-10-07T10:50:27.812Z,0.80
2018-10-07T10:51:27.811Z,0.90
2018-10-07T10:52:27.790Z,1.00
2018-10-07T10:53:27.791Z,1.00
2018-10-07T10:54:27.892Z,2.30
2018-10-07T10:55:28.013Z,1.10
2018-10-07T10:56:27.756Z,1.70
2018-10-07T10:57:27.738Z,1.00
2018-10-07T10:58:27.738Z,2.20
2018-10-07T10:59:27.724Z,2.20
2018-10-07T11:00:29.908Z,1.30
2018-10-07T11:01:27.710Z,1.20
2018-10-07T11:02:27.776Z,2.00
2018-10-07T11:03:27.753Z,0.80
2018-10-07T11:04:27.733Z,0.70
2018-10-07T11:05:27.961Z,1.30
2018-10-07T11:06:27.645Z,2.20
2018-10-07T11:07:27.625Z,1.20
2018-10-07T11:08:27.617Z,1.60
2018-10-07T11:09:27.608Z,1.50
2018-10-07T11:10:27.592Z,1.10
2018-10-07T11:11:27.611Z,1.90
2018-10-07T11:12:27.577Z,1.50
2018-10-07T11:13:27.561Z,1.30
2018-10-07T11:14:27.551Z,1.50
2018-10-07T11:15:27.653Z,0.70
2018-10-07T11:16:27.551Z,1.10
2018-10-07T11:17:27.521Z,1.20
2018-10-07T11:18:27.510Z,1.10
2018-10-07T11:19:27.557Z,1.70
2018-10-07T11:20:27.516Z,2.30
2018-10-07T11:21:27.469Z,1.30
2018-10-07T11:22:27.462Z,0.70
2018-10-07T11:23:27.447Z,0.90
2018-10-07T11:24:27.444Z,1.20
2018-10-07T11:25:27.560Z,1.50
2018-10-07T11:26:27.650Z,3.00
2018-10-07T11:27:27.405Z,1.40
2018-10-07T11:28:27.397Z,0.90
2018-10-07T11:29:27.413Z,0.90
2018-10-07T11:30:27.612Z,1.10
2018-10-07T11:31:27.388Z,0.70
2018-10-07T11:32:27.483Z,0.60
2018-10-07T11:33:27.338Z,2.70
2018-10-07T11:34:27.328Z,0.70
2018-10-07T11:35:27.315Z,6.90
2018-10-07T11:36:27.306Z,2.10
2018-10-07T11:37:27.317Z,44.30
2018-10-07T11:38:27.285Z,1.20
2018-10-07T11:39:27.266Z,1.60
2018-10-07T11:40:27.257Z,1.30
2018-10-07T11:41:27.250Z,0.90
2018-10-07T11:42:27.259Z,1.70
2018-10-07T11:43:27.229Z,1.70
2018-10-07T11:44:27.216Z,1.60
2018-10-07T11:45:27.207Z,1.60
2018-10-07T11:46:27.197Z,2.50
2018-10-07T11:47:27.207Z,0.90
2018-10-07T11:48:27.170Z,0.70
2018-10-07T11:49:27.158Z,0.60
2018-10-07T11:50:27.143Z,0.70
2018-10-07T11:51:27.138Z,1.50
2018-10-07T11:52:27.124Z,0.80
2018-10-07T11:53:27.137Z,2.30
2018-10-07T11:54:27.097Z,0.80
2018-10-07T11:55:27.097Z,1.40
2018-10-07T11:56:27.078Z,2.20
2018-10-07T11:57:27.072Z,1.40
2018-10-07T11:58:27.085Z,0.60
2018-10-07T11:59:27.043Z,0.70
2018-10-07T12:00:27.040Z,0.60
2018-10-07T12:01:27.019Z,0.70
2018-10-07T12:02:27.013Z,0.70
2018-10-07T12:03:27.024Z,0.60
2018-10-07T12:04:26.989Z,0.70
2018-10-07T12:05:26.981Z,1.30
2018-10-07T12:06:26.970Z,0.90
2018-10-07T12:07:26.962Z,1.00
2018-10-07T12:08:26.971Z,1.00
2018-10-07T12:09:26.935Z,0.60
2018-10-07T12:10:26.928Z,1.40
2018-10-07T12:11:26.907Z,1.10
2018-10-07T12:12:26.901Z,0.80
2018-10-07T12:13:26.913Z,0.60
2018-10-07T12:14:26.874Z,0.60
2018-10-07T12:15:26.872Z,3.70
2018-10-07T12:16:26.869Z,0.80
2018-10-07T12:17:26.844Z,1.40
2018-10-07T12:18:26.852Z,0.90
2018-10-07T12:19:26.827Z,0.60
2018-10-07T12:20:26.814Z,0.70
2018-10-07T12:21:26.800Z,0.80
2018-10-07T12:22:26.794Z,0.60
2018-10-07T12:23:26.804Z,1.10
2018-10-07T12:24:26.775Z,1.30
2018-10-07T12:25:26.758Z,0.60
2018-10-07T12:26:26.739Z,51.90
2018-10-07T12:27:26.739Z,64.50
2018-10-07T12:28:26.716Z,20.60
2018-10-07T12:29:26.738Z,2.50
2018-10-07T12:30:26.699Z,1.30
2018-10-07T12:31:26.683Z,1.60
2018-10-07T12:32:26.679Z,0.90
2018-10-07T12:33:26.666Z,1.10
2018-10-07T12:34:26.679Z,0.80
2018-10-07T12:35:26.639Z,1.20
2018-10-07T12:36:26.630Z,1.00
2018-10-07T12:37:26.622Z,0.80
2018-10-07T12:38:26.638Z,1.00
2018-10-07T12:39:26.596Z,1.30
2018-10-07T12:40:26.591Z,0.60
2018-10-07T12:41:26.573Z,1.10
2018-10-07T12:42:26.566Z,1.00
2018-10-07T12:43:26.549Z,1.90
2018-10-07T12:44:26.562Z,0.90
2018-10-07T12:45:26.533Z,1.30
2018-10-07T12:46:26.522Z,0.80
2018-10-07T12:47:26.508Z,1.70
2018-10-07T12:48:26.501Z,2.10
2018-10-07T12:49:26.513Z,1.00
2018-10-07T12:50:26.471Z,1.00
2018-10-07T12:51:26.470Z,1.70
2018-10-07T12:52:26.449Z,0.60
2018-10-07T12:53:26.447Z,1.20
2018-10-07T12:54:26.530Z,0.60
2018-10-07T12:55:26.422Z,0.70
2018-10-07T12:56:26.413Z,1.20
2018-10-07T12:57:26.408Z,2.10
2018-10-07T12:58:26.381Z,1.50
2018-10-07T12:59:26.408Z,1.80
2018-10-07T13:00:26.361Z,1.20
2018-10-07T13:01:26.353Z,0.70
2018-10-07T13:02:26.344Z,1.50
2018-10-07T13:03:26.326Z,1.30
2018-10-07T13:04:26.340Z,1.70
2018-10-07T13:05:26.310Z,1.10
2018-10-07T13:06:26.303Z,0.70
2018-10-07T13:07:26.281Z,0.70
2018-10-07T13:08:26.273Z,2.50